Terminal Aerodrome Forecast
Issued by NWS

Home | Current Version | Previous Version | Text Only | Print | Product List | Glossary On
Versions: 1 2 3 4 5 6 7 8 9 10 11 12 13 14 15
000
FTAK31 PAJN 231400 AAA
TAFAPG
TAF AMD
PAPG 231431Z 2315/2412 00000KT P6SM VCSH SCT025 BKN035 OVC045
      TEMPO 2315/2318 -SHRA BKN025
     FM231800 VRB05KT P6SM VCSH BKN035 OVC045
     FM240600 VRB02KT P6SM SCT040
      AMD LTD TO CLD VIS AND WIND 2312/2315=

USA.gov is the U.S. government's official web portal to all federal, state and local government web resources and services.